Lovely, Kentucky
Current Conditions -  °F | °C
As of 10:55 AM on Sunday 23 Nov 2014 (Local Time) from KSJS Reporting Station
Broken Clouds Broken Clouds  
Wind Chill: 61°   Ceiling: 10000
Heat Index: 61°   Visibility: 10mi
Dew Point: 42°   Wind: 12mph
Humidity: 50%   Direction: 150°SSE
Pressure: 29.98"   Gusts: 17mph
Location:  37.83°N, 82.4°W
Report Text: KSJS 231555Z AUTO 15010G15KT 10SM SCT090 BKN100 16/06 A2998 RMK AO2 T01620057
Loading
Personal Weather Stations






























Interactive Weather Map New forecast layout! Learn more

10-Day Weather Forecast

Advertisements
Track Severe Weather on mobile